METAR stanice u blizini

 

LYBE - Beograd / Surčin, Srbija
Ažurirano: 21/10/2019 21:30
Vedro
Vedro
 Pravac vetra JJI
Vetar: JJI 9 km/h
Temperatura: 17°C
Tačka rose: 10°C
Vlažnost: 64%
Pritisak: 1022 hPa
Pregled: Vedro
Vidljivost: greater than 10 km
2019/10/21 19:30 LYBE 211930Z 15005KT CAVOK 17/10 Q1022 NOSIG
LYBT - Beograd / Batajnica, Srbija
Ažurirano: 21/10/2019 21:30
Vedro
Vedro
 Pravac vetra I
Vetar: I 6 km/h
Temperatura: 13°C
Tačka rose: 11°C
Vlažnost: 88%
Pritisak: 1022 hPa
Pregled: Vedro
Vidljivost: greater than 10 km
2019/10/21 19:30 LYBT 211930Z 10003KT CAVOK 13/11 Q1022 NOSIG
LYVR - Vršac, Srbija
Ažurirano: 21/10/2019 18:00
NOT Current
Vedro
Vedro
 Pravac vetra calm
Vetar: Tišina
Temperatura: 21°C
Tačka rose: 7°C
Vlažnost: 40%
Pritisak: 1021 hPa
Pregled: Vedro
Vidljivost: greater than 10 km
2019/10/21 16:00 LYVR 211600Z 00000KT CAVOK 21/07 Q1021 NOSIG
 
LYKV - Lađevci, Srbija
Ažurirano: 21/10/2019 21:30
Vedro
Vedro
 Pravac vetra varies
Vetar: varies 2 km/h
Temperatura: 12°C
Tačka rose: 8°C
Vlažnost: 77%
Pritisak: 1023 hPa
Pregled: Vedro
Vidljivost: greater than 10 km
2019/10/21 19:30 LYKV 211930Z VRB01KT CAVOK 12/08 Q1023 NOSIG
LYNI - Niš, Srbija
Ažurirano: 21/10/2019 21:30
Vedro
Vedro
 Pravac vetra JJI
Vetar: JJI 6 km/h
Temperatura: 14°C
Tačka rose: 9°C
Vlažnost: 72%
Pritisak: 1023 hPa
Pregled: Vedro
Vidljivost: greater than 10 km
2019/10/21 19:30 LYNI 211930Z 16003KT CAVOK 14/09 Q1023 NOSIG
BKPR - Priština, Srbija
Ažurirano: 21/10/2019 21:30
Vedro
Vedro
 Pravac vetra varies
Vetar: varies 4 km/h
Temperatura: 14°C
Tačka rose: 7°C
Vlažnost: 63%
Pritisak: 1024 hPa
Pregled: Vedro
Vidljivost: greater than 10 km
2019/10/21 19:30 BKPR 211930Z VRB02KT CAVOK 14/07 Q1024 NOSIG
 
LHPP - Pecs / Pogany, Hungary
Ažurirano: 21/10/2019 18:45
NOT Current
Vedro
Vedro
 Pravac vetra JZ
Vetar: JZ 7 km/h
Temperatura: 21°C
Tačka rose: 14°C
Vlažnost: 64%
Pritisak: 1021 hPa
Pregled: Vedro
Vidljivost: greater than 10 km
2019/10/21 16:45 LHPP 211645Z 23004KT CAVOK 21/14 Q1021
LHUD - Szeged, Hungary
Ažurirano: 04/07/2019 01:45
NOT Current
Vedro
Vedro
 Pravac vetra S
Vetar: S 7 km/h
Temperatura: 18°C
Tačka rose: 13°C
Vlažnost: 73%
Pritisak: 1019 hPa
Pregled: Vedro
Vidljivost: greater than 10 km
2019/07/03 23:45 LHUD 032345Z 35004KT CAVOK 18/13 Q1019
LRTR - Timisoara, Romania
Ažurirano: 21/10/2019 21:30
Vedro
Vedro
 Pravac vetra ISI
Vetar: ISI 7 km/h
Temperatura: 13°C
Tačka rose: 8°C
Vlažnost: 72%
Pritisak: 1022 hPa
Pregled: Vedro
Vidljivost: greater than 10 km
2019/10/21 19:30 LRTR 211930Z 07004KT CAVOK 13/08 Q1022
 
LRCV - Craiova, Romania
Ažurirano: 21/10/2019 21:30
Vedro
Vedro
 Pravac vetra J
Vetar: J 2 km/h
Temperatura: 14°C
Tačka rose: 9°C
Vlažnost: 72%
Pritisak: 1022 hPa
Oblaci: Vedro
Vidljivost: 10 km
2019/10/21 19:30 LRCV 211930Z AUTO 19001KT 9999 NCD 14/09 Q1022
LBSF - Sofia, Bulgaria
Ažurirano: 21/10/2019 21:30
Vedro
Vedro
 Pravac vetra JJI
Vetar: JJI 7 km/h
Temperatura: 13°C
Tačka rose: 7°C
Vlažnost: 67%
Pritisak: 1024 hPa
Pregled: Vedro
Vidljivost: greater than 10 km
2019/10/21 19:30 LBSF 211930Z 16004KT 130V240 CAVOK 13/07 Q1024 NOSIG
LWSK - Skoplje, Makedonija
Ažurirano: 21/10/2019 21:30
Vedro
Vedro
 Pravac vetra ISI
Vetar: ISI 2 km/h
Temperatura: 14°C
Tačka rose: 9°C
Vlažnost: 72%
Pritisak: 1023 hPa
Pregled: Vedro
Vidljivost: greater than 10 km
2019/10/21 19:30 LWSK 211930Z 06001KT CAVOK 14/09 Q1023 NOSIG
 
LYPG - Podgorica, Crna Gora
Ažurirano: 21/10/2019 21:30
Vedro
Vedro
 Pravac vetra S
Vetar: S 11 km/h
Temperatura: 16°C
Tačka rose: 11°C
Vlažnost: 72%
Pritisak: 1022 hPa
Pregled: Vedro
Vidljivost: greater than 10 km
2019/10/21 19:30 LYPG 211930Z 35006KT CAVOK 16/11 Q1022 NOSIG
LQSA - Sarajevo, Bosna i Hercegovina
Ažurirano: 21/10/2019 21:30
Vedro
Vedro
 Pravac vetra varies
Vetar: varies 4 km/h
Temperatura: 9°C
Tačka rose: 6°C
Vlažnost: 82%
Pritisak: 1025 hPa
Pregled: Vedro
Vidljivost: greater than 10 km
2019/10/21 19:30 LQSA 211930Z VRB02KT CAVOK 09/06 Q1025 NOSIG
LDOS - Osijek, Hrvatksa
Ažurirano: 21/10/2019 21:30
Vedro
Vedro
 Pravac vetra J
Vetar: J 9 km/h
Temperatura: 15°C
Tačka rose: 10°C
Vlažnost: 72%
Pritisak: 1022 hPa
Pregled: Vedro
Vidljivost: greater than 10 km
2019/10/21 19:30 LDOS 211930Z 17005KT CAVOK 15/10 Q1022